createdAt,value
2019-02-05T00:02:27.784Z,5.93
2019-02-05T00:04:59.312Z,5.88
2019-02-05T00:07:31.287Z,5.91
2019-02-05T00:10:02.771Z,5.98
2019-02-05T00:12:34.672Z,5.92
2019-02-05T00:15:07.016Z,5.92
2019-02-05T00:17:38.393Z,5.90
2019-02-05T00:20:10.460Z,5.83
2019-02-05T00:22:42.052Z,5.87
2019-02-05T00:25:13.637Z,5.81
2019-02-05T00:27:45.260Z,5.80
2019-02-05T00:30:17.372Z,5.64
2019-02-05T00:32:49.256Z,5.48
2019-02-05T00:35:21.073Z,5.45
2019-02-05T00:37:52.676Z,5.44
2019-02-05T00:40:24.339Z,5.48
2019-02-05T00:42:56.197Z,5.35
2019-02-05T00:45:27.751Z,5.29
2019-02-05T00:47:59.086Z,5.35
2019-02-05T00:50:30.699Z,5.39
2019-02-05T00:53:01.961Z,5.45
2019-02-05T00:55:33.326Z,5.50
2019-02-05T00:58:05.070Z,5.58
2019-02-05T01:00:36.533Z,5.60
2019-02-05T01:03:08.085Z,5.66
2019-02-05T01:05:39.520Z,5.77
2019-02-05T01:08:10.964Z,5.85
2019-02-05T01:10:43.015Z,5.86
2019-02-05T01:13:14.621Z,5.91
2019-02-05T01:15:46.592Z,5.74
2019-02-05T01:18:18.218Z,5.85
2019-02-05T01:20:49.457Z,5.81
2019-02-05T01:23:20.852Z,5.84
2019-02-05T01:25:52.134Z,6.00
2019-02-05T01:28:23.649Z,6.01
2019-02-05T01:30:54.987Z,6.01
2019-02-05T01:33:26.555Z,6.00
2019-02-05T01:35:57.887Z,6.11
2019-02-05T01:38:29.124Z,5.92
2019-02-05T01:41:00.446Z,6.00
2019-02-05T01:43:33.123Z,6.00
2019-02-05T01:46:04.770Z,6.03
2019-02-05T01:48:36.224Z,6.07
2019-02-05T01:51:07.454Z,6.03
2019-02-05T01:53:38.966Z,6.11
2019-02-05T01:56:10.295Z,6.14
2019-02-05T01:58:41.679Z,6.06
2019-02-05T02:01:13.387Z,6.13
2019-02-05T02:03:44.780Z,6.18
2019-02-05T02:06:16.289Z,6.19
2019-02-05T02:08:48.004Z,6.24
2019-02-05T02:11:19.555Z,6.36
2019-02-05T02:13:51.263Z,6.40
2019-02-05T02:16:22.822Z,6.21
2019-02-05T02:18:54.324Z,6.12
2019-02-05T02:21:25.953Z,6.22
2019-02-05T02:23:57.584Z,6.27
2019-02-05T02:26:29.191Z,6.31
2019-02-05T02:29:00.955Z,6.40
2019-02-05T02:31:32.623Z,6.18
2019-02-05T02:34:04.247Z,6.10
2019-02-05T02:36:35.860Z,5.95
2019-02-05T02:39:08.799Z,5.89
2019-02-05T02:41:40.382Z,5.83
2019-02-05T02:44:11.613Z,5.85
2019-02-05T02:46:44.142Z,5.78
2019-02-05T02:49:15.678Z,5.62
2019-02-05T02:51:47.226Z,5.55
2019-02-05T02:54:18.842Z,5.59
2019-02-05T02:56:50.253Z,5.54
2019-02-05T02:59:21.791Z,5.60
2019-02-05T03:01:53.379Z,5.52
2019-02-05T03:04:24.869Z,5.53
2019-02-05T03:06:56.186Z,5.47
2019-02-05T03:09:27.918Z,5.37
2019-02-05T03:11:59.622Z,5.33
2019-02-05T03:14:31.150Z,5.44
2019-02-05T03:17:02.972Z,5.41
2019-02-05T03:19:34.623Z,5.38
2019-02-05T03:22:06.382Z,5.24
2019-02-05T03:24:37.874Z,5.26
2019-02-05T03:27:17.370Z,5.28
2019-02-05T03:29:42.688Z,5.33
2019-02-05T03:32:14.271Z,5.28
2019-02-05T03:34:45.516Z,5.20
2019-02-05T03:37:16.879Z,5.19
2019-02-05T03:39:48.281Z,5.11
2019-02-05T03:42:20.711Z,5.06
2019-02-05T03:44:52.158Z,4.99
2019-02-05T03:47:23.592Z,5.00
2019-02-05T03:49:56.449Z,4.97
2019-02-05T03:52:50.689Z,4.99
2019-02-05T03:55:57.706Z,4.95
2019-02-05T03:59:13.842Z,4.94
2019-02-05T04:02:33.670Z,4.87
2019-02-05T04:05:32.520Z,4.81
2019-02-05T04:08:25.354Z,4.72
2019-02-05T04:11:38.644Z,4.66
2019-02-05T04:14:45.781Z,4.58
2019-02-05T04:17:58.557Z,4.52
2019-02-05T04:21:16.797Z,4.52
2019-02-05T04:24:24.191Z,4.55
2019-02-05T04:27:43.734Z,4.57
2019-02-05T04:30:37.002Z,4.62
2019-02-05T04:33:35.607Z,4.64
2019-02-05T04:36:45.258Z,4.61
2019-02-05T04:39:38.582Z,4.54
2019-02-05T04:42:42.806Z,4.60
2019-02-05T04:45:51.903Z,4.46
2019-02-05T04:49:10.769Z,4.59
2019-02-05T04:52:24.321Z,4.54
2019-02-05T04:55:32.088Z,4.53
2019-02-05T04:58:31.682Z,4.53
2019-02-05T05:01:29.214Z,4.42
2019-02-05T05:04:19.520Z,4.48
2019-02-05T05:07:18.455Z,4.40
2019-02-05T05:09:58.243Z,4.55
2019-02-05T05:12:33.139Z,4.57
2019-02-05T05:15:05.530Z,4.65
2019-02-05T05:17:37.091Z,4.57
2019-02-05T05:20:11.069Z,4.54
2019-02-05T05:22:43.500Z,4.53
2019-02-05T05:25:15.143Z,4.57
2019-02-05T05:27:46.681Z,4.61
2019-02-05T05:30:19.667Z,4.65
2019-02-05T05:32:51.096Z,4.48
2019-02-05T05:35:22.751Z,4.48
2019-02-05T05:37:54.506Z,4.59
2019-02-05T05:40:26.180Z,4.65
2019-02-05T05:42:57.686Z,4.69
2019-02-05T05:45:29.060Z,4.67
2019-02-05T05:48:00.598Z,4.62
2019-02-05T05:50:32.264Z,4.63
2019-02-05T05:53:03.484Z,4.65
2019-02-05T05:55:34.868Z,4.57
2019-02-05T05:58:06.256Z,4.55
2019-02-05T06:00:38.071Z,4.51
2019-02-05T06:03:10.484Z,4.45
2019-02-05T06:05:42.181Z,4.40
2019-02-05T06:08:14.215Z,4.40
2019-02-05T06:10:45.841Z,4.46
2019-02-05T06:13:17.228Z,4.52
2019-02-05T06:15:48.611Z,4.64
2019-02-05T06:18:20.785Z,4.69
2019-02-05T06:20:52.294Z,4.61
2019-02-05T06:23:23.654Z,4.60
2019-02-05T06:25:55.390Z,4.61
2019-02-05T06:28:34.256Z,4.54
2019-02-05T06:31:00.179Z,4.60
2019-02-05T06:33:31.707Z,4.55
2019-02-05T06:36:03.521Z,4.64
2019-02-05T06:38:34.810Z,4.64
2019-02-05T06:41:06.607Z,4.64
2019-02-05T06:43:38.266Z,4.78
2019-02-05T06:46:09.791Z,4.86
2019-02-05T06:48:41.117Z,4.87
2019-02-05T06:51:12.726Z,4.80
2019-02-05T06:53:44.220Z,4.82
2019-02-05T06:56:15.904Z,4.76
2019-02-05T06:58:47.161Z,4.86
2019-02-05T07:01:18.404Z,4.88
2019-02-05T07:03:49.763Z,4.88
2019-02-05T07:06:21.139Z,4.80
2019-02-05T07:08:52.557Z,4.81
2019-02-05T07:11:25.311Z,4.84
2019-02-05T07:13:58.274Z,4.90
2019-02-05T07:16:29.790Z,5.01
2019-02-05T07:19:01.405Z,5.03
2019-02-05T07:21:33.140Z,4.99
2019-02-05T07:24:04.933Z,5.02
2019-02-05T07:26:36.677Z,5.02
2019-02-05T07:29:08.693Z,5.02
2019-02-05T07:31:40.381Z,4.92
2019-02-05T07:34:11.835Z,4.92
2019-02-05T07:36:43.784Z,5.00
2019-02-05T07:39:15.287Z,5.02
2019-02-05T07:41:46.847Z,4.93
2019-02-05T07:44:18.376Z,4.97
2019-02-05T07:46:50.107Z,5.09
2019-02-05T07:49:21.798Z,5.19
2019-02-05T07:51:53.641Z,5.27
2019-02-05T07:54:25.255Z,5.16
2019-02-05T07:56:57.090Z,5.19
2019-02-05T07:59:28.722Z,5.31
2019-02-05T08:02:00.525Z,5.38
2019-02-05T08:04:31.937Z,5.37
2019-02-05T08:07:03.704Z,5.25
2019-02-05T08:09:35.355Z,5.31
2019-02-05T08:12:07.041Z,5.31
2019-02-05T08:14:38.881Z,5.38
2019-02-05T08:17:10.509Z,5.40
2019-02-05T08:19:42.011Z,5.60
2019-02-05T08:22:13.996Z,5.67
2019-02-05T08:24:45.583Z,5.81
2019-02-05T08:27:17.197Z,5.90
2019-02-05T08:29:48.733Z,5.83
2019-02-05T08:32:20.379Z,5.91
2019-02-05T08:34:51.908Z,5.91
2019-02-05T08:37:23.717Z,5.95
2019-02-05T08:39:55.549Z,5.94
2019-02-05T08:42:27.345Z,5.97
2019-02-05T08:44:59.136Z,5.98
2019-02-05T08:47:30.827Z,6.06
2019-02-05T08:50:03.558Z,6.07
2019-02-05T08:52:35.112Z,6.04
2019-02-05T08:55:08.248Z,5.95
2019-02-05T08:57:39.802Z,6.10
2019-02-05T09:00:20.742Z,6.08
2019-02-05T09:02:52.857Z,6.01
2019-02-05T09:05:24.476Z,6.14
2019-02-05T09:07:56.011Z,6.10
2019-02-05T09:10:34.880Z,6.31
2019-02-05T09:13:07.037Z,6.37
2019-02-05T09:15:38.859Z,6.30
2019-02-05T09:18:10.915Z,6.46
2019-02-05T09:20:42.359Z,6.50
2019-02-05T09:23:14.506Z,6.55
2019-02-05T09:25:47.003Z,6.51
2019-02-05T09:28:18.574Z,6.52
2019-02-05T09:30:50.242Z,6.69
2019-02-05T09:33:21.739Z,6.74
2019-02-05T09:35:53.153Z,7.03
2019-02-05T09:38:24.497Z,7.17
2019-02-05T09:40:55.998Z,7.13
2019-02-05T09:43:27.475Z,7.24
2019-02-05T09:45:58.939Z,7.24
2019-02-05T09:48:30.235Z,7.49
2019-02-05T09:51:01.790Z,7.71
2019-02-05T09:53:33.312Z,7.69
2019-02-05T09:56:04.949Z,7.70
2019-02-05T09:58:36.579Z,7.73
2019-02-05T10:01:08.497Z,7.86
2019-02-05T10:03:40.120Z,8.01
2019-02-05T10:06:12.673Z,8.33
2019-02-05T10:08:45.490Z,8.24
2019-02-05T10:11:16.978Z,8.06
2019-02-05T10:13:48.856Z,7.99
2019-02-05T10:16:20.597Z,8.29
2019-02-05T10:18:52.048Z,8.28
2019-02-05T10:21:23.838Z,8.67
2019-02-05T10:23:55.526Z,9.09
2019-02-05T10:26:27.475Z,9.53
2019-02-05T10:28:59.201Z,9.97
2019-02-05T10:31:30.786Z,9.71
2019-02-05T10:34:02.515Z,9.99
2019-02-05T10:36:34.474Z,10.15
2019-02-05T10:39:09.557Z,10.55
2019-02-05T10:41:41.511Z,10.98
2019-02-05T10:44:13.167Z,11.17
2019-02-05T10:46:44.811Z,11.13
2019-02-05T10:49:16.528Z,11.46
2019-02-05T10:51:47.855Z,11.70
2019-02-05T10:54:19.269Z,11.99
2019-02-05T10:56:50.524Z,12.10
2019-02-05T10:59:21.708Z,12.29
2019-02-05T11:01:53.033Z,12.39
2019-02-05T11:18:28.065Z,13.71
2019-02-05T11:20:59.240Z,14.04
2019-02-05T11:26:19.595Z,14.02
2019-02-05T11:28:51.676Z,13.79
2019-02-05T11:31:23.050Z,13.40
2019-02-05T11:36:42.745Z,13.70
2019-02-05T11:39:16.697Z,14.02
2019-02-05T11:41:48.043Z,14.16
2019-02-05T11:44:19.111Z,13.70
2019-02-05T11:46:50.404Z,13.78
2019-02-05T11:49:21.828Z,13.52
2019-02-05T11:51:53.240Z,13.88
2019-02-05T11:54:24.660Z,14.24
2019-02-05T11:56:55.853Z,14.24
2019-02-05T11:59:26.954Z,14.58
2019-02-05T12:01:58.082Z,14.59
2019-02-05T12:04:30.044Z,14.62
2019-02-05T12:07:01.415Z,14.78
2019-02-05T12:09:32.761Z,14.78
2019-02-05T12:12:04.214Z,15.00
2019-02-05T12:14:35.470Z,15.24
2019-02-05T12:17:06.824Z,15.41
2019-02-05T12:19:38.258Z,15.63
2019-02-05T12:22:09.413Z,15.33
2019-02-05T12:24:41.059Z,14.93
2019-02-05T12:27:12.314Z,15.07
2019-02-05T12:29:43.587Z,15.50
2019-02-05T12:32:14.815Z,15.65
2019-02-05T12:34:46.048Z,15.51
2019-02-05T12:37:16.972Z,15.58
2019-02-05T12:39:48.230Z,15.68
2019-02-05T12:42:19.506Z,15.84
2019-02-05T12:44:50.688Z,14.65
2019-02-05T12:47:22.169Z,14.65
2019-02-05T12:49:53.509Z,14.34
2019-02-05T12:52:24.926Z,13.71
2019-02-05T12:54:56.251Z,13.71
2019-02-05T12:57:27.727Z,13.54
2019-02-05T12:59:59.340Z,13.45
2019-02-05T13:02:30.343Z,13.28
2019-02-05T13:05:01.875Z,13.07
2019-02-05T13:07:33.210Z,13.09
2019-02-05T13:10:05.205Z,13.06
2019-02-05T13:12:36.667Z,13.14
2019-02-05T13:15:08.323Z,13.20
2019-02-05T13:17:39.419Z,13.16
2019-02-05T13:20:14.352Z,13.09
2019-02-05T13:22:46.850Z,13.15
2019-02-05T13:25:20.715Z,13.13
2019-02-05T13:27:51.988Z,13.05
2019-02-05T13:30:25.299Z,13.09
2019-02-05T13:32:56.814Z,12.91
2019-02-05T13:35:28.248Z,12.65
2019-02-05T13:38:00.001Z,12.60
2019-02-05T13:40:31.696Z,12.72
2019-02-05T13:43:03.102Z,12.47
2019-02-05T13:45:35.273Z,12.29
2019-02-05T13:48:07.498Z,12.38
2019-02-05T13:50:38.947Z,12.30
2019-02-05T13:53:09.993Z,12.28
2019-02-05T13:55:45.653Z,12.24
2019-02-05T13:58:17.087Z,12.27
2019-02-05T14:00:50.275Z,12.02
2019-02-05T14:03:21.883Z,11.79
2019-02-05T14:05:53.103Z,11.66
2019-02-05T14:08:24.187Z,11.47
2019-02-05T14:10:55.298Z,11.28
2019-02-05T14:13:26.366Z,11.17
2019-02-05T14:15:57.424Z,10.98
2019-02-05T14:18:28.696Z,10.98
2019-02-05T14:20:59.883Z,10.79
2019-02-05T14:23:31.067Z,10.75
2019-02-05T14:26:02.528Z,10.74
2019-02-05T14:28:34.216Z,10.79
2019-02-05T14:31:05.830Z,10.52
2019-02-05T14:33:37.172Z,10.50
2019-02-05T14:36:08.619Z,10.45
2019-02-05T14:38:40.399Z,10.43
2019-02-05T14:41:11.877Z,10.35
2019-02-05T14:43:43.196Z,10.17
2019-02-05T14:46:14.563Z,10.12
2019-02-05T14:48:45.908Z,10.08
2019-02-05T14:51:17.393Z,9.96
2019-02-05T14:53:49.322Z,9.82
2019-02-05T14:56:20.939Z,9.81
2019-02-05T14:58:52.697Z,9.67
2019-02-05T15:01:24.176Z,9.66
2019-02-05T15:03:55.590Z,9.56
2019-02-05T15:06:27.377Z,9.49
2019-02-05T15:08:58.881Z,9.48
2019-02-05T15:11:30.092Z,9.47
2019-02-05T15:14:01.541Z,9.34
2019-02-05T15:16:32.864Z,9.35
2019-02-05T15:19:04.457Z,9.39
2019-02-05T15:21:35.767Z,9.36
2019-02-05T15:24:07.150Z,9.15
2019-02-05T15:26:38.332Z,9.14
2019-02-05T15:29:09.777Z,9.04
2019-02-05T15:31:41.495Z,8.84
2019-02-05T15:34:27.114Z,8.66
2019-02-05T15:36:58.467Z,8.69
2019-02-05T15:39:30.159Z,8.31
2019-02-05T15:42:02.078Z,8.08
2019-02-05T15:44:33.532Z,8.04
2019-02-05T15:47:04.848Z,8.06
2019-02-05T15:49:36.372Z,8.05
2019-02-05T15:52:08.040Z,7.97
2019-02-05T15:54:39.759Z,7.85
2019-02-05T15:57:11.167Z,7.93
2019-02-05T15:59:44.813Z,7.92
2019-02-05T16:02:16.390Z,7.89
2019-02-05T16:04:47.938Z,7.88
2019-02-05T16:07:19.395Z,7.84
2019-02-05T16:09:50.917Z,7.79
2019-02-05T16:12:22.543Z,7.70
2019-02-05T16:14:54.470Z,7.70
2019-02-05T16:17:25.954Z,7.55
2019-02-05T16:19:57.852Z,7.35
2019-02-05T16:22:29.182Z,7.34
2019-02-05T16:25:00.984Z,7.16
2019-02-05T16:27:32.558Z,7.16
2019-02-05T16:30:05.845Z,7.24
2019-02-05T16:32:37.919Z,7.17
2019-02-05T16:35:09.937Z,7.13
2019-02-05T16:37:41.511Z,7.08
2019-02-05T16:40:16.696Z,7.09
2019-02-05T16:42:48.363Z,7.10
2019-02-05T16:45:22.778Z,7.18
2019-02-05T16:47:54.335Z,6.99
2019-02-05T16:50:31.939Z,7.07
2019-02-05T16:53:03.685Z,7.09
2019-02-05T16:55:35.208Z,7.09
2019-02-05T16:58:07.333Z,7.04
2019-02-05T17:00:39.375Z,7.01
2019-02-05T17:03:10.759Z,7.06
2019-02-05T17:05:42.225Z,6.95
2019-02-05T17:08:13.885Z,6.95
2019-02-05T17:10:45.538Z,6.96
2019-02-05T17:13:17.229Z,7.08
2019-02-05T17:15:49.004Z,6.99
2019-02-05T17:18:23.697Z,6.91
2019-02-05T17:20:53.697Z,6.94
2019-02-05T17:23:25.076Z,6.96
2019-02-05T17:25:56.429Z,6.93
2019-02-05T17:28:27.857Z,6.82
2019-02-05T17:30:59.259Z,6.82
2019-02-05T17:33:30.947Z,6.76
2019-02-05T17:36:02.297Z,6.73
2019-02-05T17:38:33.742Z,6.65
2019-02-05T17:41:06.776Z,6.75
2019-02-05T17:43:38.489Z,6.81
2019-02-05T17:46:10.115Z,6.74
2019-02-05T17:48:41.642Z,6.58
2019-02-05T17:51:13.265Z,6.69
2019-02-05T17:53:44.690Z,6.57
2019-02-05T17:56:15.975Z,6.53
2019-02-05T17:58:47.892Z,6.44
2019-02-05T18:01:20.026Z,6.32
2019-02-05T18:03:51.625Z,6.35
2019-02-05T18:06:22.982Z,6.41
2019-02-05T18:08:54.644Z,6.31
2019-02-05T18:11:26.649Z,6.30
2019-02-05T18:13:58.037Z,6.45
2019-02-05T18:16:29.267Z,6.33
2019-02-05T18:19:00.809Z,6.23
2019-02-05T18:21:31.956Z,6.22
2019-02-05T18:24:03.672Z,6.16
2019-02-05T18:26:35.378Z,6.23
2019-02-05T18:29:07.661Z,6.29
2019-02-05T18:31:39.414Z,6.32
2019-02-05T18:34:11.118Z,6.23
2019-02-05T18:36:42.729Z,6.21
2019-02-05T18:39:14.262Z,6.32
2019-02-05T18:41:45.804Z,6.33
2019-02-05T18:44:17.115Z,6.29
2019-02-05T18:46:48.353Z,6.26
2019-02-05T18:49:19.902Z,6.20
2019-02-05T18:51:51.229Z,6.26
2019-02-05T18:54:22.458Z,6.17
2019-02-05T18:56:53.818Z,6.16
2019-02-05T18:59:25.215Z,6.10
2019-02-05T19:01:57.233Z,6.12
2019-02-05T19:04:28.808Z,6.15
2019-02-05T19:07:00.211Z,6.19
2019-02-05T19:09:31.933Z,6.32
2019-02-05T19:12:04.982Z,6.28
2019-02-05T19:14:36.657Z,6.23
2019-02-05T19:17:08.173Z,6.27
2019-02-05T19:19:39.714Z,6.29
2019-02-05T19:22:11.749Z,6.28
2019-02-05T19:24:48.523Z,6.32
2019-02-05T19:27:20.239Z,6.39
2019-02-05T19:29:51.694Z,6.36
2019-02-05T19:32:26.711Z,6.51
2019-02-05T19:34:58.479Z,6.40
2019-02-05T19:37:29.942Z,6.49
2019-02-05T19:40:01.438Z,6.45
2019-02-05T19:42:33.126Z,6.50
2019-02-05T19:45:17.477Z,6.58
2019-02-05T19:47:49.259Z,6.55
2019-02-05T19:50:20.469Z,6.51
2019-02-05T19:52:51.987Z,6.62
2019-02-05T19:55:23.712Z,6.55
2019-02-05T19:57:55.768Z,6.52
2019-02-05T20:00:27.472Z,6.58
2019-02-05T20:02:58.860Z,6.63
2019-02-05T20:05:30.280Z,6.67
2019-02-05T20:08:01.485Z,6.62
2019-02-05T20:10:33.163Z,6.73
2019-02-05T20:13:04.863Z,6.73
2019-02-05T20:15:36.194Z,6.66
2019-02-05T20:18:07.737Z,6.66
2019-02-05T20:20:38.952Z,6.74
2019-02-05T20:23:11.275Z,6.80
2019-02-05T20:25:42.518Z,6.81
2019-02-05T20:28:14.083Z,6.75
2019-02-05T20:30:45.555Z,6.75
2019-02-05T20:33:17.497Z,6.93
2019-02-05T20:35:49.173Z,6.85
2019-02-05T20:38:20.788Z,6.81
2019-02-05T20:40:52.358Z,6.74
2019-02-05T20:43:23.642Z,6.67
2019-02-05T20:45:55.018Z,6.60
2019-02-05T20:48:26.291Z,6.54
2019-02-05T20:50:57.686Z,6.50
2019-02-05T20:53:28.978Z,6.50
2019-02-05T20:56:00.647Z,6.50
2019-02-05T20:58:31.968Z,6.53
2019-02-05T21:01:03.972Z,6.47
2019-02-05T21:03:35.392Z,6.47
2019-02-05T21:06:07.424Z,6.52
2019-02-05T21:08:39.019Z,6.55
2019-02-05T21:11:10.788Z,6.57
2019-02-05T21:13:42.146Z,6.61
2019-02-05T21:16:13.550Z,6.43
2019-02-05T21:18:44.887Z,6.36
2019-02-05T21:21:16.122Z,6.38
2019-02-05T21:23:47.513Z,6.37
2019-02-05T21:26:18.808Z,6.43
2019-02-05T21:28:50.512Z,6.45
2019-02-05T21:31:22.041Z,6.39
2019-02-05T21:33:53.615Z,6.26
2019-02-05T21:36:24.963Z,6.49
2019-02-05T21:38:56.186Z,6.42
2019-02-05T21:41:27.954Z,6.42
2019-02-05T21:43:59.182Z,6.37
2019-02-05T21:46:30.429Z,6.44
2019-02-05T21:49:01.788Z,6.31
2019-02-05T21:54:07.008Z,6.14
2019-02-05T21:56:38.481Z,6.14
2019-02-05T21:59:09.930Z,6.14
2019-02-05T22:01:42.536Z,6.22
2019-02-05T22:04:13.963Z,6.20
2019-02-05T22:06:45.697Z,6.15
2019-02-05T22:09:17.610Z,6.07
2019-02-05T22:11:48.992Z,6.15
2019-02-05T22:14:20.453Z,6.14
2019-02-05T22:16:51.648Z,6.07
2019-02-05T22:19:23.309Z,6.19
2019-02-05T22:21:54.690Z,6.22
2019-02-05T22:24:26.341Z,6.16
2019-02-05T22:26:57.598Z,6.06
2019-02-05T22:29:28.857Z,5.98
2019-02-05T22:32:00.138Z,6.05
2019-02-05T22:34:38.857Z,6.01
2019-02-05T22:37:04.687Z,5.96
2019-02-05T22:39:36.227Z,5.98
2019-02-05T22:42:07.692Z,5.91
2019-02-05T22:44:39.016Z,5.81
2019-02-05T22:47:10.380Z,5.84
2019-02-05T22:49:41.579Z,5.81
2019-02-05T22:52:13.202Z,5.86
2019-02-05T22:54:44.773Z,5.85
2019-02-05T22:57:16.149Z,5.94
2019-02-05T22:59:47.555Z,5.84
2019-02-05T23:02:19.631Z,5.89
2019-02-05T23:05:46.336Z,6.04
2019-02-05T23:08:17.623Z,5.95
2019-02-05T23:11:19.726Z,5.87
2019-02-05T23:13:51.227Z,5.86
2019-02-05T23:16:22.774Z,5.76
2019-02-05T23:18:54.416Z,5.89
2019-02-05T23:21:25.937Z,5.77
2019-02-05T23:23:57.636Z,5.89
2019-02-05T23:26:29.379Z,5.85
2019-02-05T23:29:01.041Z,5.88
2019-02-05T23:31:32.525Z,5.89
2019-02-05T23:34:04.126Z,5.84
2019-02-05T23:36:35.692Z,5.82
2019-02-05T23:39:07.228Z,5.77
2019-02-05T23:41:40.050Z,5.81
2019-02-05T23:44:11.535Z,5.83
2019-02-05T23:46:43.068Z,5.79
2019-02-05T23:49:14.579Z,5.78
2019-02-05T23:51:46.230Z,5.67
2019-02-05T23:54:17.761Z,5.73
2019-02-05T23:56:48.981Z,5.74
2019-02-05T23:59:20.350Z,5.74
